Time;durP1;ratioP1;P1;durP2;ratioP2;P2;SDS_P1;SDS_P2;PMS_P1;PMS_P2;Temp;Humidity;BMP_temperature;BMP_pressure;BME280_temperature;BME280_humidity;BME280_pressure;Samples;Min_cycle;Max_cycle;Signal;HPM_P1;HPM_P2
2023/02/07 00:00:11;;;;;;;;;;;-3.20;76.10;;;;;;5002276;28;87292;-37
2023/02/07 00:02:36;;;;;;;;;;;-3.20;76.10;;;;;;5001892;28;87303;-37
2023/02/07 00:05:02;;;;;;;;;;;-3.20;76.20;;;;;;5001952;28;87167;-37
2023/02/07 00:07:27;;;;;;;;;;;-3.20;76.10;;;;;;5001811;28;88937;-37
2023/02/07 00:09:53;;;;;;;;;;;-3.20;76.00;;;;;;5001773;28;88056;-37
2023/02/07 00:12:18;;;;;;;;;;;-3.20;76.20;;;;;;5002278;28;86396;-37
2023/02/07 00:14:44;;;;;;;;;;;-3.20;76.20;;;;;;5004337;28;88223;-37
2023/02/07 00:17:10;;;;;;;;;;;-3.20;76.30;;;;;;5001754;28;87076;-37
2023/02/07 00:19:35;;;;;;;;;;;-3.20;76.30;;;;;;5001467;28;88395;-37
2023/02/07 00:22:01;;;;;;;;;;;-3.20;76.20;;;;;;5001539;28;88084;-37
2023/02/07 00:24:26;;;;;;;;;;;-3.20;76.20;;;;;;5001806;28;87103;-37
2023/02/07 00:26:52;;;;;;;;;;;-3.30;76.30;;;;;;5001904;28;88896;-37
2023/02/07 00:29:18;;;;;;;;;;;-3.30;76.30;;;;;;5001427;28;89494;-37
2023/02/07 00:31:44;;;;;;;;;;;-3.30;76.40;;;;;;5001676;28;86913;-37
2023/02/07 00:34:10;;;;;;;;;;;-3.30;76.50;;;;;;5002030;28;87130;-37
2023/02/07 00:36:36;;;;;;;;;;;-3.30;76.50;;;;;;5004827;28;87994;-37
2023/02/07 00:39:12;;;;;;;;;;;-3.30;76.60;;;;;;5001384;28;88336;-37
2023/02/07 00:41:38;;;;;;;;;;;-3.30;76.70;;;;;;5001400;28;89512;-37
2023/02/07 00:44:03;;;;;;;;;;;-3.30;76.80;;;;;;5000859;28;88045;-37
2023/02/07 00:46:29;;;;;;;;;;;-3.30;76.70;;;;;;5004820;28;89760;-37
2023/02/07 00:48:54;;;;;;;;;;;-3.30;76.80;;;;;;5004561;28;89601;-37
2023/02/07 00:51:20;;;;;;;;;;;-3.30;76.80;;;;;;5004725;28;87093;-37
2023/02/07 00:53:46;;;;;;;;;;;-3.30;76.80;;;;;;5004820;28;89207;-37
2023/02/07 00:56:12;;;;;;;;;;;-3.40;76.80;;;;;;5004447;28;89221;-37
2023/02/07 00:58:38;;;;;;;;;;;-3.40;76.80;;;;;;5007703;28;87115;-37
2023/02/07 01:01:04;;;;;;;;;;;-3.40;77.00;;;;;;5004718;28;87832;-37
2023/02/07 01:03:29;;;;;;;;;;;-3.40;76.90;;;;;;5004678;28;87021;-37
2023/02/07 01:05:55;;;;;;;;;;;-3.40;76.90;;;;;;5004306;28;87883;-37
2023/02/07 01:08:21;;;;;;;;;;;-3.30;77.00;;;;;;5003507;28;90325;-37
2023/02/07 01:10:46;;;;;;;;;;;-3.30;77.00;;;;;;5004943;28;87134;-36
2023/02/07 01:13:12;;;;;;;;;;;-3.40;77.10;;;;;;5004739;28;87475;-37
2023/02/07 01:15:39;;;;;;;;;;;-3.40;77.00;;;;;;5004287;28;89579;-37
2023/02/07 01:18:05;;;;;;;;;;;-3.40;77.00;;;;;;5004512;28;87494;-38
2023/02/07 01:20:31;;;;;;;;;;;-3.40;77.10;;;;;;5006816;28;88606;-38
2023/02/07 01:22:56;;;;;;;;;;;-3.40;77.10;;;;;;5004144;28;87104;-37
2023/02/07 01:25:22;;;;;;;;;;;-3.40;77.20;;;;;;5004905;28;88792;-37
2023/02/07 01:27:47;;;;;;;;;;;-3.40;77.20;;;;;;5003860;28;89684;-37
2023/02/07 01:30:13;;;;;;;;;;;-3.40;77.10;;;;;;5004372;28;86961;-37
2023/02/07 01:32:38;;;;;;;;;;;-3.40;77.20;;;;;;5003483;28;88826;-37
2023/02/07 01:35:04;;;;;;;;;;;-3.40;77.20;;;;;;5003887;28;89395;-37
2023/02/07 01:37:29;;;;;;;;;;;-3.40;77.20;;;;;;5004022;28;87264;-37
2023/02/07 01:39:55;;;;;;;;;;;-3.50;77.20;;;;;;5007066;28;87298;-37
2023/02/07 01:42:22;;;;;;;;;;;-3.50;77.30;;;;;;5004100;28;88206;-37
2023/02/07 01:44:58;;;;;;;;;;;-3.40;77.30;;;;;;5004027;28;88708;-37
2023/02/07 01:47:23;;;;;;;;;;;-3.40;77.40;;;;;;5003706;28;88730;-37
2023/02/07 01:49:51;;;;;;;;;;;-3.50;77.30;;;;;;5004287;28;86381;-37
2023/02/07 01:52:18;;;;;;;;;;;-3.50;77.30;;;;;;5003765;28;87516;-37
2023/02/07 01:54:45;;;;;;;;;;;-3.50;77.40;;;;;;5003344;28;90182;-37
2023/02/07 01:57:13;;;;;;;;;;;-3.50;77.40;;;;;;5002130;28;88144;-37
2023/02/07 01:59:42;;;;;;;;;;;-3.50;77.40;;;;;;5003701;28;89771;-37
2023/02/07 02:02:09;;;;;;;;;;;-3.50;77.40;;;;;;5006290;28;89469;-37
2023/02/07 02:04:35;;;;;;;;;;;-3.50;77.50;;;;;;5003593;28;88240;-37
2023/02/07 02:07:01;;;;;;;;;;;-3.50;77.60;;;;;;5002991;28;89721;-37
2023/02/07 02:09:28;;;;;;;;;;;-3.50;77.60;;;;;;5003495;28;87124;-37
2023/02/07 02:11:59;;;;;;;;;;;-3.50;77.50;;;;;;5003573;28;88844;-37
2023/02/07 02:14:43;;;;;;;;;;;-3.50;77.60;;;;;;5003669;28;87749;-38
2023/02/07 02:17:24;;;;;;;;;;;-3.50;77.60;;;;;;5003404;28;87194;-37
2023/02/07 02:19:52;;;;;;;;;;;-3.50;77.50;;;;;;5003563;28;88765;-37
2023/02/07 02:22:27;;;;;;;;;;;-3.50;77.60;;;;;;5001938;28;89631;-37
2023/02/07 02:25:04;;;;;;;;;;;-3.50;77.60;;;;;;5006465;28;86969;-37
2023/02/07 02:27:36;;;;;;;;;;;-3.50;77.50;;;;;;5002714;28;89928;-37
2023/02/07 02:30:01;;;;;;;;;;;-3.50;77.60;;;;;;5003721;28;87117;-37
2023/02/07 02:32:46;;;;;;;;;;;-3.50;77.60;;;;;;5003129;28;87932;-37
2023/02/07 02:35:17;;;;;;;;;;;-3.60;77.60;;;;;;5002858;28;88153;-37
2023/02/07 02:37:46;;;;;;;;;;;-3.60;77.60;;;;;;5003066;28;87105;-37
2023/02/07 02:40:18;;;;;;;;;;;-3.60;77.60;;;;;;5003620;28;87380;-37
2023/02/07 02:42:51;;;;;;;;;;;-3.50;77.70;;;;;;5002932;28;88211;-37
2023/02/07 02:45:19;;;;;;;;;;;-3.60;77.70;;;;;;5003095;28;87131;-37
2023/02/07 02:47:47;;;;;;;;;;;-3.60;77.70;;;;;;5005000;28;89071;-37
2023/02/07 02:50:13;;;;;;;;;;;-3.60;77.70;;;;;;5003048;28;87132;-37
2023/02/07 02:52:39;;;;;;;;;;;-3.60;77.70;;;;;;5002751;28;88894;-37
2023/02/07 02:55:05;;;;;;;;;;;-3.60;77.70;;;;;;5002955;28;88051;-38
2023/02/07 02:57:42;;;;;;;;;;;-3.60;77.80;;;;;;5003217;28;86987;-37
2023/02/07 03:00:14;;;;;;;;;;;-3.60;77.70;;;;;;5002777;28;89067;-37
2023/02/07 03:02:39;;;;;;;;;;;-3.60;77.80;;;;;;5002346;28;89504;-37
2023/02/07 03:05:17;;;;;;;;;;;-3.60;77.80;;;;;;5002861;28;86515;-37
2023/02/07 03:08:05;;;;;;;;;;;-3.60;77.80;;;;;;5002513;28;88194;-37
2023/02/07 03:10:42;;;;;;;;;;;-3.60;77.80;;;;;;5005574;28;89914;-37
2023/02/07 03:13:07;;;;;;;;;;;-3.60;77.90;;;;;;5002337;28;88159;-37
2023/02/07 03:15:35;;;;;;;;;;;-3.60;77.80;;;;;;5002345;28;89676;-37
2023/02/07 03:18:04;;;;;;;;;;;-3.60;77.80;;;;;;5002610;28;87148;-38
2023/02/07 03:20:33;;;;;;;;;;;-3.60;77.80;;;;;;5002524;28;89435;-37
2023/02/07 03:23:00;;;;;;;;;;;-3.60;77.70;;;;;;5002196;28;89304;-37
2023/02/07 03:25:26;;;;;;;;;;;-3.60;77.80;;;;;;5002577;28;87107;-37
2023/02/07 03:27:53;;;;;;;;;;;-3.60;77.80;;;;;;5003033;28;87627;-37
2023/02/07 03:30:20;;;;;;;;;;;-3.60;77.70;;;;;;5002417;28;88554;-37
2023/02/07 03:32:49;;;;;;;;;;;-3.60;77.70;;;;;;5005337;28;87124;-37
2023/02/07 03:35:19;;;;;;;;;;;-3.60;77.70;;;;;;5002127;28;89311;-37
2023/02/07 03:37:46;;;;;;;;;;;-3.70;77.80;;;;;;5001748;28;88023;-37
2023/02/07 03:40:13;;;;;;;;;;;-3.70;77.90;;;;;;5002590;28;88428;-37
2023/02/07 03:42:41;;;;;;;;;;;-3.70;77.90;;;;;;5001909;28;89726;-38
2023/02/07 03:45:08;;;;;;;;;;;-3.70;77.90;;;;;;5002232;28;87032;-37
2023/02/07 03:47:34;;;;;;;;;;;-3.70;77.80;;;;;;5002273;28;88963;-37
2023/02/07 03:49:59;;;;;;;;;;;-3.70;77.90;;;;;;5001933;28;90023;-37
2023/02/07 03:52:25;;;;;;;;;;;-3.70;77.80;;;;;;5004830;28;87153;-37
2023/02/07 03:54:50;;;;;;;;;;;-3.70;77.70;;;;;;5002756;28;87462;-37
2023/02/07 03:57:16;;;;;;;;;;;-3.70;77.80;;;;;;5002256;28;87159;-37
2023/02/07 03:59:42;;;;;;;;;;;-3.70;77.90;;;;;;5002311;28;87291;-37
2023/02/07 04:02:07;;;;;;;;;;;-3.70;78.00;;;;;;5001529;28;89190;-37
2023/02/07 04:04:33;;;;;;;;;;;-3.70;78.00;;;;;;5002340;28;87149;-37
2023/02/07 04:06:58;;;;;;;;;;;-3.70;78.00;;;;;;5001673;28;88779;-37
2023/02/07 04:09:24;;;;;;;;;;;-3.70;78.10;;;;;;5001515;28;89508;-37
2023/02/07 04:11:50;;;;;;;;;;;-3.70;78.10;;;;;;5001977;28;87169;-37
2023/02/07 04:14:18;;;;;;;;;;;-3.70;78.10;;;;;;5004186;28;88763;-37
2023/02/07 04:16:44;;;;;;;;;;;-3.70;78.00;;;;;;5002005;28;87053;-37
2023/02/07 04:19:10;;;;;;;;;;;-3.70;78.20;;;;;;5002777;28;87931;-37
2023/02/07 04:21:35;;;;;;;;;;;-3.70;78.10;;;;;;5004972;28;90998;-37
2023/02/07 04:24:01;;;;;;;;;;;-3.80;78.10;;;;;;5005143;28;87390;-37
2023/02/07 04:26:26;;;;;;;;;;;-3.70;78.10;;;;;;5004849;28;88944;-37
2023/02/07 04:28:52;;;;;;;;;;;-3.80;78.10;;;;;;5005016;28;87357;-37
2023/02/07 04:31:17;;;;;;;;;;;-3.80;78.10;;;;;;5005074;28;87178;-37
2023/02/07 04:33:43;;;;;;;;;;;-3.80;78.10;;;;;;5005134;28;89065;-37
2023/02/07 04:36:08;;;;;;;;;;;-3.80;78.10;;;;;;5007807;28;89323;-37
2023/02/07 04:38:34;;;;;;;;;;;-3.70;78.10;;;;;;5005231;28;88813;-37
2023/02/07 04:41:02;;;;;;;;;;;-3.70;78.20;;;;;;5004770;28;89620;-37
2023/02/07 04:43:28;;;;;;;;;;;-3.80;78.10;;;;;;5005360;28;86347;-37
2023/02/07 04:45:53;;;;;;;;;;;-3.80;78.20;;;;;;5005162;28;88232;-37
2023/02/07 04:48:19;;;;;;;;;;;-3.80;78.20;;;;;;5004708;28;89688;-37
2023/02/07 04:50:44;;;;;;;;;;;-3.80;78.20;;;;;;5004226;28;87992;-37
2023/02/07 04:53:10;;;;;;;;;;;-3.80;78.20;;;;;;5005053;28;88443;-37
2023/02/07 04:55:36;;;;;;;;;;;-3.80;78.20;;;;;;5004624;28;89306;-37
2023/02/07 04:58:02;;;;;;;;;;;-3.80;78.30;;;;;;5007736;28;87059;-37
2023/02/07 05:00:27;;;;;;;;;;;-3.80;78.20;;;;;;5004301;28;89436;-37
2023/02/07 05:02:53;;;;;;;;;;;-3.80;78.20;;;;;;5005066;28;87128;-37
2023/02/07 05:05:19;;;;;;;;;;;-3.80;78.20;;;;;;5004513;28;88790;-37
2023/02/07 05:07:44;;;;;;;;;;;-3.80;78.30;;;;;;5004933;28;88780;-37
2023/02/07 05:10:10;;;;;;;;;;;-3.80;78.30;;;;;;5004875;28;87104;-37
2023/02/07 05:12:35;;;;;;;;;;;-3.80;78.30;;;;;;5004518;28;88755;-37
2023/02/07 05:15:01;;;;;;;;;;;-3.80;78.40;;;;;;5003668;28;91264;-37
2023/02/07 05:17:27;;;;;;;;;;;-3.90;78.30;;;;;;5004583;28;87160;-37
2023/02/07 05:19:52;;;;;;;;;;;-3.80;78.30;;;;;;5006978;28;88244;-37
2023/02/07 05:22:18;;;;;;;;;;;-3.90;78.30;;;;;;5004373;28;87000;-37
2023/02/07 05:24:43;;;;;;;;;;;-3.90;78.40;;;;;;5004398;28;88948;-37
2023/02/07 05:27:08;;;;;;;;;;;-3.90;78.30;;;;;;5004104;28;89836;-37
2023/02/07 05:29:34;;;;;;;;;;;-3.90;78.30;;;;;;5004150;28;86977;-37
2023/02/07 05:34:44;;;;;;;;;;;-3.90;78.40;;;;;;5004153;28;87283;-36
2023/02/07 05:37:09;;;;;;;;;;;-3.80;78.50;;;;;;5004316;28;87108;-37
2023/02/07 05:39:35;;;;;;;;;;;-3.90;78.50;;;;;;5003783;28;87825;-37
2023/02/07 05:42:00;;;;;;;;;;;-3.90;78.30;;;;;;5006714;28;87882;-37
2023/02/07 05:44:26;;;;;;;;;;;-3.90;78.30;;;;;;5004207;28;89017;-37
2023/02/07 05:46:51;;;;;;;;;;;-3.90;78.30;;;;;;5003959;28;88095;-37
2023/02/07 05:49:17;;;;;;;;;;;-3.90;78.30;;;;;;5004303;28;87100;-38
2023/02/07 05:51:42;;;;;;;;;;;-3.90;78.40;;;;;;5003830;28;89148;-37
2023/02/07 05:54:07;;;;;;;;;;;-3.90;78.30;;;;;;5003791;28;88250;-37
2023/02/07 05:56:33;;;;;;;;;;;-3.90;78.40;;;;;;5004552;28;86370;-37
2023/02/07 05:58:58;;;;;;;;;;;-3.90;78.40;;;;;;5003821;28;88231;-37
2023/02/07 06:01:24;;;;;;;;;;;-3.90;78.30;;;;;;5006409;28;88998;-37
2023/02/07 06:03:49;;;;;;;;;;;-3.90;78.20;;;;;;5003507;28;87922;-37
2023/02/07 06:06:15;;;;;;;;;;;-3.90;78.30;;;;;;5003480;28;87594;-37
2023/02/07 06:08:40;;;;;;;;;;;-3.90;78.30;;;;;;5003757;28;87151;-37
2023/02/07 06:11:06;;;;;;;;;;;-3.90;78.30;;;;;;5003665;28;88010;-37
2023/02/07 06:13:31;;;;;;;;;;;-3.90;78.30;;;;;;5002817;28;89613;-37
2023/02/07 06:15:57;;;;;;;;;;;-3.90;78.30;;;;;;5003924;28;87321;-37
2023/02/07 06:18:23;;;;;;;;;;;-3.90;78.40;;;;;;5003676;28;88895;-37
2023/02/07 06:20:52;;;;;;;;;;;-3.90;78.20;;;;;;5003716;28;88786;-38
2023/02/07 06:23:19;;;;;;;;;;;-3.90;78.50;;;;;;5006541;28;87193;-37
2023/02/07 06:25:45;;;;;;;;;;;-3.90;78.30;;;;;;5003130;28;88485;-37
2023/02/07 06:28:10;;;;;;;;;;;-3.90;78.20;;;;;;5002732;28;88084;-37
2023/02/07 06:30:36;;;;;;;;;;;-3.90;78.20;;;;;;5003276;28;89750;-37
2023/02/07 06:33:01;;;;;;;;;;;-3.90;78.20;;;;;;5002942;28;89437;-37
2023/02/07 06:35:27;;;;;;;;;;;-3.90;78.20;;;;;;5003410;28;87138;-37
2023/02/07 06:37:52;;;;;;;;;;;-3.90;78.20;;;;;;5003229;28;88798;-37
2023/02/07 06:40:18;;;;;;;;;;;-3.90;78.20;;;;;;5002852;28;89548;-37
2023/02/07 06:42:43;;;;;;;;;;;-3.90;78.30;;;;;;5002284;28;87183;-37
2023/02/07 06:45:09;;;;;;;;;;;-3.90;78.20;;;;;;5006410;28;87309;-37
2023/02/07 06:47:34;;;;;;;;;;;-3.90;78.20;;;;;;5003252;28;87239;-37
2023/02/07 06:50:00;;;;;;;;;;;-3.90;78.20;;;;;;5003331;28;87388;-37
2023/02/07 06:52:25;;;;;;;;;;;-3.90;78.30;;;;;;5002010;28;90364;-37
2023/02/07 06:54:51;;;;;;;;;;;-3.90;78.10;;;;;;5003102;28;87267;-37
2023/02/07 06:57:16;;;;;;;;;;;-3.90;78.20;;;;;;5003205;28;87422;-37
2023/02/07 06:59:42;;;;;;;;;;;-3.90;78.20;;;;;;5002638;28;89340;-37
2023/02/07 07:02:09;;;;;;;;;;;-3.90;78.30;;;;;;5002809;28;87114;-38
2023/02/07 07:04:35;;;;;;;;;;;-4.00;78.40;;;;;;5002825;28;88725;-37
2023/02/07 07:07:00;;;;;;;;;;;-3.90;78.50;;;;;;5005080;28;89363;-37
2023/02/07 07:09:26;;;;;;;;;;;-3.90;78.40;;;;;;5003581;28;87355;-37
2023/02/07 07:11:51;;;;;;;;;;;-3.90;78.50;;;;;;5002500;28;88012;-37
2023/02/07 07:14:17;;;;;;;;;;;-3.90;78.50;;;;;;5002732;28;87011;-37
2023/02/07 07:16:42;;;;;;;;;;;-3.90;78.50;;;;;;5002211;28;89153;-37
2023/02/07 07:19:08;;;;;;;;;;;-3.90;78.60;;;;;;5002222;28;90054;-37
2023/02/07 07:21:34;;;;;;;;;;;-3.90;78.60;;;;;;5002467;28;87123;-37
2023/02/07 07:23:59;;;;;;;;;;;-3.90;78.70;;;;;;5002602;28;89321;-37
2023/02/07 07:26:25;;;;;;;;;;;-3.90;78.60;;;;;;5002147;28;89619;-37
2023/02/07 07:28:50;;;;;;;;;;;-3.90;78.60;;;;;;5005872;28;87128;-37
2023/02/07 07:31:16;;;;;;;;;;;-3.90;78.60;;;;;;5002452;28;88019;-37
2023/02/07 07:33:41;;;;;;;;;;;-3.90;78.50;;;;;;5003173;28;86399;-37
2023/02/07 07:36:07;;;;;;;;;;;-3.90;78.60;;;;;;5002550;28;88128;-38
2023/02/07 07:38:32;;;;;;;;;;;-3.90;78.60;;;;;;5001937;28;89703;-37
2023/02/07 07:40:58;;;;;;;;;;;-3.90;78.70;;;;;;5001787;28;88131;-37
2023/02/07 07:43:24;;;;;;;;;;;-3.90;78.60;;;;;;5002385;28;88481;-37
2023/02/07 07:45:51;;;;;;;;;;;-3.90;78.60;;;;;;5001973;28;89347;-37
2023/02/07 07:48:16;;;;;;;;;;;-3.90;78.70;;;;;;5002312;28;87135;-37
2023/02/07 07:50:42;;;;;;;;;;;-3.90;78.60;;;;;;5004844;28;88824;-37
2023/02/07 07:53:07;;;;;;;;;;;-3.90;78.60;;;;;;5002205;28;87204;-37
2023/02/07 07:55:33;;;;;;;;;;;-3.90;78.60;;;;;;5004462;28;87392;-37
2023/02/07 07:57:58;;;;;;;;;;;-3.90;78.60;;;;;;5006051;28;87370;-37
2023/02/07 08:00:24;;;;;;;;;;;-3.90;78.70;;;;;;5005787;28;86961;-37
2023/02/07 08:02:49;;;;;;;;;;;-3.80;78.70;;;;;;5005739;28;88769;-37
2023/02/07 08:05:15;;;;;;;;;;;-3.80;78.60;;;;;;5004368;28;89512;-37
2023/02/07 08:07:40;;;;;;;;;;;-3.80;78.60;;;;;;5006049;28;87015;-37
2023/02/07 08:10:06;;;;;;;;;;;-3.80;78.60;;;;;;5008459;28;87486;-37
2023/02/07 08:12:31;;;;;;;;;;;-3.80;79.20;;;;;;5005373;28;87125;-37
2023/02/07 08:14:57;;;;;;;;;;;-3.80;78.50;;;;;;5005456;28;88927;-37
2023/02/07 08:17:22;;;;;;;;;;;-3.80;78.50;;;;;;5005190;28;89521;-37
2023/02/07 08:19:48;;;;;;;;;;;-3.80;78.50;;;;;;5005446;28;87133;-37
2023/02/07 08:22:14;;;;;;;;;;;-3.80;78.50;;;;;;5005938;28;86897;-37
2023/02/07 08:24:40;;;;;;;;;;;-3.80;78.50;;;;;;5005118;28;89465;-37
2023/02/07 08:27:06;;;;;;;;;;;-3.80;78.50;;;;;;5005476;28;87093;-37
2023/02/07 08:29:31;;;;;;;;;;;-3.80;78.50;;;;;;5004686;28;88804;-37
2023/02/07 08:31:57;;;;;;;;;;;-3.80;78.60;;;;;;5007568;28;89813;-37
2023/02/07 08:34:25;;;;;;;;;;;-3.80;78.60;;;;;;5005577;28;87546;-37
2023/02/07 08:36:51;;;;;;;;;;;-3.80;78.70;;;;;;5004724;28;89618;-37
2023/02/07 08:39:16;;;;;;;;;;;-3.80;78.70;;;;;;5005435;28;87109;-37
2023/02/07 08:41:42;;;;;;;;;;;-3.80;78.70;;;;;;5005180;28;89317;-37
2023/02/07 08:44:07;;;;;;;;;;;-3.80;78.70;;;;;;5004733;28;89863;-37
2023/02/07 08:46:33;;;;;;;;;;;-3.80;78.80;;;;;;5005874;28;86387;-37
2023/02/07 08:48:58;;;;;;;;;;;-3.80;78.90;;;;;;5004960;28;88033;-37
2023/02/07 08:51:24;;;;;;;;;;;-3.80;78.80;;;;;;5004583;28;89543;-37
2023/02/07 08:53:49;;;;;;;;;;;-3.80;78.90;;;;;;5007210;28;87833;-37
2023/02/07 08:56:15;;;;;;;;;;;-3.80;79.00;;;;;;5004524;28;89749;-37
2023/02/07 08:58:40;;;;;;;;;;;-3.80;78.90;;;;;;5004895;28;87450;-37
2023/02/07 09:01:09;;;;;;;;;;;-3.70;78.70;;;;;;5004696;28;88969;-37
2023/02/07 09:03:36;;;;;;;;;;;-3.70;78.70;;;;;;5004342;28;89614;-37
2023/02/07 09:06:02;;;;;;;;;;;-3.70;78.60;;;;;;5003648;28;87109;-37
2023/02/07 09:08:27;;;;;;;;;;;-3.70;78.80;;;;;;5004636;28;89051;-37
2023/02/07 09:10:53;;;;;;;;;;;-3.70;78.70;;;;;;5004927;28;87126;-37
2023/02/07 09:13:18;;;;;;;;;;;-3.70;78.80;;;;;;5004344;28;87159;-37
2023/02/07 09:15:44;;;;;;;;;;;-3.70;78.80;;;;;;5007004;28;88680;-37
2023/02/07 09:20:53;;;;;;;;;;;-3.70;78.90;;;;;;5004767;28;87575;-37
2023/02/07 09:23:19;;;;;;;;;;;-3.70;78.90;;;;;;5003754;28;89514;-37
2023/02/07 09:25:49;;;;;;;;;;;-3.70;78.90;;;;;;5004305;28;87388;-37
2023/02/07 09:28:15;;;;;;;;;;;-3.70;78.90;;;;;;5004818;28;88062;-37
2023/02/07 09:30:44;;;;;;;;;;;-3.70;79.00;;;;;;5003987;28;89554;-37
2023/02/07 09:33:10;;;;;;;;;;;-3.70;79.00;;;;;;5004169;28;87139;-37
2023/02/07 09:35:39;;;;;;;;;;;-3.70;79.00;;;;;;5004750;28;88894;-37
2023/02/07 09:38:05;;;;;;;;;;;-3.70;78.90;;;;;;5006549;28;89663;-37
2023/02/07 09:40:33;;;;;;;;;;;-3.70;79.00;;;;;;5003910;28;89307;-37
2023/02/07 09:43:13;;;;;;;;;;;-3.70;79.00;;;;;;5003127;28;90157;-37
2023/02/07 09:45:41;;;;;;;;;;;-3.60;79.10;;;;;;5004217;28;87180;-37
2023/02/07 09:48:13;;;;;;;;;;;-3.60;79.10;;;;;;5004144;28;88850;-37
2023/02/07 09:50:43;;;;;;;;;;;-3.60;79.00;;;;;;5003682;28;89827;-37
2023/02/07 09:53:20;;;;;;;;;;;-3.60;78.90;;;;;;5003988;28;87120;-37
2023/02/07 09:55:50;;;;;;;;;;;-3.60;79.10;;;;;;5003972;28;89186;-37
2023/02/07 09:58:29;;;;;;;;;;;-3.60;79.10;;;;;;5003527;28;89403;-37
2023/02/07 10:01:00;;;;;;;;;;;-3.60;79.10;;;;;;5007384;28;86254;-37
2023/02/07 10:03:28;;;;;;;;;;;-3.60;79.20;;;;;;5003231;28;89400;-37
2023/02/07 10:05:59;;;;;;;;;;;-3.70;79.20;;;;;;5003059;28;87239;-37
2023/02/07 10:08:25;;;;;;;;;;;-3.70;79.30;;;;;;5003282;28;89029;-37
2023/02/07 10:11:02;;;;;;;;;;;-3.70;79.30;;;;;;5003257;28;89811;-37
2023/02/07 10:13:57;;;;;;;;;;;-3.70;79.30;;;;;;5003557;28;87160;-37
2023/02/07 10:16:29;;;;;;;;;;;-3.60;79.40;;;;;;5003525;28;88805;-37
2023/02/07 10:18:59;;;;;;;;;;;-3.70;79.30;;;;;;5002061;28;88728;-37
2023/02/07 10:21:43;;;;;;;;;;;-3.70;79.40;;;;;;5006556;28;87103;-37
2023/02/07 10:24:26;;;;;;;;;;;-3.60;79.50;;;;;;5002773;28;89348;-37
2023/02/07 10:26:53;;;;;;;;;;;-3.60;79.50;;;;;;5004034;28;86280;-37
2023/02/07 10:29:21;;;;;;;;;;;-3.60;79.20;;;;;;5003356;28;88512;-37
2023/02/07 10:31:49;;;;;;;;;;;-3.50;79.20;;;;;;5003019;28;89335;-37
2023/02/07 10:34:22;;;;;;;;;;;-3.50;79.10;;;;;;5002734;28;88073;-37
2023/02/07 10:36:49;;;;;;;;;;;-3.50;79.10;;;;;;5003076;28;89734;-37
2023/02/07 10:39:16;;;;;;;;;;;-3.50;79.00;;;;;;5002956;28;89797;-37
2023/02/07 10:41:41;;;;;;;;;;;-3.50;79.10;;;;;;5003117;28;87108;-37
2023/02/07 10:44:09;;;;;;;;;;;-3.50;79.10;;;;;;5005713;28;88899;-37
2023/02/07 10:46:35;;;;;;;;;;;-3.50;79.10;;;;;;5003145;28;86969;-37
2023/02/07 10:49:01;;;;;;;;;;;-3.50;79.20;;;;;;5003191;28;88761;-37
2023/02/07 10:51:35;;;;;;;;;;;-3.50;79.30;;;;;;5003246;28;87713;-37
2023/02/07 10:54:06;;;;;;;;;;;-3.50;79.20;;;;;;5002792;28;87235;-37
2023/02/07 10:56:33;;;;;;;;;;;-3.50;79.40;;;;;;5003000;28;89003;-37
2023/02/07 10:58:58;;;;;;;;;;;-3.50;79.40;;;;;;5002044;28;90348;-37
2023/02/07 11:01:25;;;;;;;;;;;-3.50;79.40;;;;;;5002715;28;87056;-37
2023/02/07 11:03:51;;;;;;;;;;;-3.50;79.20;;;;;;5002956;28;87251;-37
2023/02/07 11:06:33;;;;;;;;;;;-3.50;79.30;;;;;;5004899;28;88472;-37
2023/02/07 11:09:12;;;;;;;;;;;-3.50;79.30;;;;;;5002985;28;87579;-37
2023/02/07 11:11:39;;;;;;;;;;;-3.40;79.20;;;;;;5002989;28;87981;-37
2023/02/07 11:14:05;;;;;;;;;;;-3.40;79.30;;;;;;5002899;28;87170;-37
2023/02/07 11:16:31;;;;;;;;;;;-3.40;79.20;;;;;;5003101;28;88825;-37
2023/02/07 11:19:01;;;;;;;;;;;-3.40;79.30;;;;;;5002571;28;87109;-37
2023/02/07 11:21:34;;;;;;;;;;;-3.40;79.30;;;;;;5002537;28;87132;-37
2023/02/07 11:24:02;;;;;;;;;;;-3.40;79.30;;;;;;5002027;28;89095;-37
2023/02/07 11:26:28;;;;;;;;;;;-3.40;79.30;;;;;;5002220;28;88635;-37
2023/02/07 11:29:01;;;;;;;;;;;-3.40;79.40;;;;;;5005201;28;87209;-37
2023/02/07 11:31:31;;;;;;;;;;;-3.40;79.40;;;;;;5002209;28;88137;-37
2023/02/07 11:34:09;;;;;;;;;;;-3.40;79.40;;;;;;5002443;28;87082;-37
2023/02/07 11:36:34;;;;;;;;;;;-3.40;79.60;;;;;;5002738;28;87381;-37
2023/02/07 11:39:00;;;;;;;;;;;-3.40;79.60;;;;;;5002384;28;88181;-37
2023/02/07 11:41:27;;;;;;;;;;;-3.40;80.20;;;;;;5003043;28;86435;-37
2023/02/07 11:43:52;;;;;;;;;;;-3.40;79.60;;;;;;5002279;28;88444;-37
2023/02/07 11:46:18;;;;;;;;;;;-3.40;79.60;;;;;;5001933;28;89314;-37
2023/02/07 11:48:46;;;;;;;;;;;-3.40;79.50;;;;;;5001617;28;88214;-37
2023/02/07 11:51:16;;;;;;;;;;;-3.40;79.50;;;;;;5004848;28;89894;-37
2023/02/07 11:53:47;;;;;;;;;;;-3.40;79.50;;;;;;5002096;28;87124;-37
2023/02/07 11:56:26;;;;;;;;;;;-3.40;79.50;;;;;;5001995;28;88597;-37
2023/02/07 11:58:52;;;;;;;;;;;-3.40;79.60;;;;;;5001849;28;88501;-37
2023/02/07 12:01:22;;;;;;;;;;;-3.40;79.60;;;;;;5002220;28;87144;-37
2023/02/07 12:04:02;;;;;;;;;;;-3.40;79.60;;;;;;5002268;28;89040;-37
2023/02/07 12:06:32;;;;;;;;;;;-3.40;79.60;;;;;;5001688;28;87830;-37
2023/02/07 12:08:58;;;;;;;;;;;-3.40;79.70;;;;;;5001890;28;87112;-37
2023/02/07 12:11:26;;;;;;;;;;;-3.30;79.60;;;;;;5004780;28;88972;-37
2023/02/07 12:13:57;;;;;;;;;;;-3.30;79.80;;;;;;5001170;28;88103;-37
2023/02/07 12:16:25;;;;;;;;;;;-3.30;79.80;;;;;;5001789;28;90063;-37
2023/02/07 12:18:56;;;;;;;;;;;-3.30;79.70;;;;;;5001564;28;89795;-37
2023/02/07 12:21:25;;;;;;;;;;;-3.30;79.80;;;;;;5001715;28;87135;-37
2023/02/07 12:24:05;;;;;;;;;;;-3.30;79.60;;;;;;5001644;28;89021;-37
2023/02/07 12:26:49;;;;;;;;;;;-3.20;79.70;;;;;;5001474;28;89343;-37
2023/02/07 12:29:21;;;;;;;;;;;-3.30;79.60;;;;;;5001738;28;87362;-37
2023/02/07 12:31:49;;;;;;;;;;;-3.20;79.70;;;;;;5002342;28;87571;-37
2023/02/07 12:34:34;;;;;;;;;;;-3.30;79.60;;;;;;5004398;28;89120;-37
2023/02/07 12:37:23;;;;;;;;;;;-3.30;79.60;;;;;;5001758;28;88847;-37
2023/02/07 12:40:08;;;;;;;;;;;-3.20;79.70;;;;;;5000592;28;90720;-37
2023/02/07 12:42:34;;;;;;;;;;;-3.20;79.70;;;;;;5004355;28;87212;-37
2023/02/07 12:45:01;;;;;;;;;;;-3.20;79.70;;;;;;5005172;28;88855;-37
2023/02/07 12:47:26;;;;;;;;;;;-3.30;79.60;;;;;;5005058;28;87983;-37
2023/02/07 12:49:57;;;;;;;;;;;-3.20;79.70;;;;;;5004969;28;87138;-37
2023/02/07 12:52:33;;;;;;;;;;;-3.20;79.60;;;;;;5005014;28;88920;-37
2023/02/07 12:55:13;;;;;;;;;;;-3.20;80.20;;;;;;5004505;28;88420;-37
2023/02/07 12:57:47;;;;;;;;;;;-3.20;79.60;;;;;;5008344;28;86426;-37
2023/02/07 13:00:22;;;;;;;;;;;-3.10;79.50;;;;;;5004586;28;90145;-37
2023/02/07 13:03:03;;;;;;;;;;;-3.10;79.50;;;;;;5004984;28;87020;-37
2023/02/07 13:05:47;;;;;;;;;;;-3.10;79.40;;;;;;5003610;28;88705;-37
2023/02/07 13:08:32;;;;;;;;;;;-3.10;79.30;;;;;;5004789;28;88007;-37
2023/02/07 13:10:58;;;;;;;;;;;-3.10;79.30;;;;;;5004586;28;87133;-37
2023/02/07 13:13:30;;;;;;;;;;;-3.10;79.40;;;;;;5004716;28;89053;-37
2023/02/07 13:15:55;;;;;;;;;;;-3.10;79.40;;;;;;5004425;28;91041;-37
2023/02/07 13:18:35;;;;;;;;;;;-3.10;79.40;;;;;;5003180;28;87169;-37
2023/02/07 13:21:07;;;;;;;;;;;-3.10;79.30;;;;;;5007513;28;87567;-37
2023/02/07 13:23:34;;;;;;;;;;;-2.90;78.80;;;;;;5004700;28;86621;-37
2023/02/07 13:26:02;;;;;;;;;;;-2.90;78.80;;;;;;5004378;28;88361;-37
2023/02/07 13:28:45;;;;;;;;;;;-3.00;78.80;;;;;;5003961;28;89642;-37
2023/02/07 13:31:13;;;;;;;;;;;-3.00;78.80;;;;;;5003874;28;88049;-37
2023/02/07 13:33:39;;;;;;;;;;;-3.00;78.90;;;;;;5004243;28;89897;-37
2023/02/07 13:36:11;;;;;;;;;;;-2.90;78.80;;;;;;5004396;28;86902;-37
2023/02/07 13:38:43;;;;;;;;;;;-2.90;78.90;;;;;;5004327;28;86988;-37
2023/02/07 13:41:13;;;;;;;;;;;-2.90;78.90;;;;;;5004149;28;88000;-37
2023/02/07 13:44:01;;;;;;;;;;;-2.80;78.50;;;;;;5006779;28;88912;-37
2023/02/07 13:46:27;;;;;;;;;;;-2.80;78.20;;;;;;5004114;28;88310;-37
2023/02/07 13:48:59;;;;;;;;;;;-2.70;78.10;;;;;;5004360;28;88013;-37
2023/02/07 13:51:39;;;;;;;;;;;-2.90;78.50;;;;;;5003850;28;87095;-37
2023/02/07 13:54:20;;;;;;;;;;;-2.70;78.30;;;;;;5003971;28;88840;-37
2023/02/07 14:00:26;;;;;;;;;;;-2.80;78.50;;;;;;5004523;28;87732;-37
2023/02/07 14:02:55;;;;;;;;;;;-2.70;78.20;;;;;;4962087;28;89180;-37
2023/02/07 14:05:25;;;;;;;;;;;-2.70;78.00;;;;;;4961335;28;88419;-37
2023/02/07 14:07:55;;;;;;;;;;;-2.70;78.50;;;;;;4985637;28;87107;-37
2023/02/07 14:10:36;;;;;;;;;;;-2.70;78.10;;;;;;5003461;28;87845;-37
2023/02/07 14:13:02;;;;;;;;;;;-2.80;78.20;;;;;;5003619;28;87248;-37
2023/02/07 14:15:29;;;;;;;;;;;-2.70;78.00;;;;;;5004409;28;87220;-37
2023/02/07 14:17:59;;;;;;;;;;;-2.60;77.90;;;;;;5003175;28;89512;-37
2023/02/07 14:20:34;;;;;;;;;;;-2.60;77.70;;;;;;5003383;28;87053;-37
2023/02/07 14:23:05;;;;;;;;;;;-2.70;77.80;;;;;;5002715;28;88052;-37
2023/02/07 14:25:38;;;;;;;;;;;-2.60;77.90;;;;;;5003010;28;89881;-37
2023/02/07 14:28:04;;;;;;;;;;;-2.70;77.80;;;;;;5006337;28;87005;-37
2023/02/07 14:30:35;;;;;;;;;;;-2.60;77.70;;;;;;5003199;28;89632;-37